sensor_id;sensor_type;location;lat;lon;timestamp;P1;durP1;ratioP1;P2;durP2;ratioP2
18732;SDS011;9495;51.210;2.934;2023-05-07T00:01:44;49.08;;;35.15;;
18732;SDS011;9495;51.210;2.934;2023-05-07T00:04:14;44.22;;;34.58;;
18732;SDS011;9495;51.210;2.934;2023-05-07T00:06:43;52.17;;;35.15;;
18732;SDS011;9495;51.210;2.934;2023-05-07T00:09:11;45.65;;;34.55;;
18732;SDS011;9495;51.210;2.934;2023-05-07T00:11:40;49.85;;;35.33;;
18732;SDS011;9495;51.210;2.934;2023-05-07T00:14:08;51.33;;;35.88;;
18732;SDS011;9495;51.210;2.934;2023-05-07T00:16:36;47.17;;;36.17;;
18732;SDS011;9495;51.210;2.934;2023-05-07T00:19:05;50.97;;;35.97;;
18732;SDS011;9495;51.210;2.934;2023-05-07T00:21:35;50.38;;;35.17;;
18732;SDS011;9495;51.210;2.934;2023-05-07T00:24:04;48.80;;;35.97;;
18732;SDS011;9495;51.210;2.934;2023-05-07T00:26:32;49.63;;;35.45;;
18732;SDS011;9495;51.210;2.934;2023-05-07T00:29:01;48.13;;;35.63;;
18732;SDS011;9495;51.210;2.934;2023-05-07T00:31:29;52.78;;;36.10;;
18732;SDS011;9495;51.210;2.934;2023-05-07T00:33:57;55.58;;;37.28;;
18732;SDS011;9495;51.210;2.934;2023-05-07T00:36:26;50.72;;;37.25;;
18732;SDS011;9495;51.210;2.934;2023-05-07T00:38:57;51.73;;;34.63;;
18732;SDS011;9495;51.210;2.934;2023-05-07T00:41:28;52.63;;;34.58;;
18732;SDS011;9495;51.210;2.934;2023-05-07T00:43:57;49.05;;;36.17;;
18732;SDS011;9495;51.210;2.934;2023-05-07T00:46:25;48.83;;;35.45;;
18732;SDS011;9495;51.210;2.934;2023-05-07T00:48:54;52.58;;;36.33;;
18732;SDS011;9495;51.210;2.934;2023-05-07T00:51:22;52.22;;;36.15;;
18732;SDS011;9495;51.210;2.934;2023-05-07T00:53:53;52.03;;;36.50;;
18732;SDS011;9495;51.210;2.934;2023-05-07T00:56:23;51.90;;;37.05;;
18732;SDS011;9495;51.210;2.934;2023-05-07T00:58:52;56.58;;;37.08;;
18732;SDS011;9495;51.210;2.934;2023-05-07T01:01:21;48.70;;;36.53;;
18732;SDS011;9495;51.210;2.934;2023-05-07T01:03:50;48.70;;;36.10;;
18732;SDS011;9495;51.210;2.934;2023-05-07T01:06:18;53.95;;;36.35;;
18732;SDS011;9495;51.210;2.934;2023-05-07T01:08:48;52.35;;;37.03;;
18732;SDS011;9495;51.210;2.934;2023-05-07T01:11:19;52.85;;;36.45;;
18732;SDS011;9495;51.210;2.934;2023-05-07T01:13:50;47.77;;;35.50;;
18732;SDS011;9495;51.210;2.934;2023-05-07T01:16:19;50.07;;;36.93;;
18732;SDS011;9495;51.210;2.934;2023-05-07T01:18:47;50.15;;;35.90;;
18732;SDS011;9495;51.210;2.934;2023-05-07T01:21:17;53.07;;;36.93;;
18732;SDS011;9495;51.210;2.934;2023-05-07T01:23:47;52.30;;;37.08;;
18732;SDS011;9495;51.210;2.934;2023-05-07T01:26:16;57.28;;;37.45;;
18732;SDS011;9495;51.210;2.934;2023-05-07T01:28:46;56.10;;;37.53;;
18732;SDS011;9495;51.210;2.934;2023-05-07T01:31:15;50.78;;;36.78;;
18732;SDS011;9495;51.210;2.934;2023-05-07T01:33:45;52.75;;;36.10;;
18732;SDS011;9495;51.210;2.934;2023-05-07T01:36:16;54.70;;;38.42;;
18732;SDS011;9495;51.210;2.934;2023-05-07T01:38:47;54.25;;;37.42;;
18732;SDS011;9495;51.210;2.934;2023-05-07T01:41:16;54.45;;;38.13;;
18732;SDS011;9495;51.210;2.934;2023-05-07T01:43:45;53.15;;;38.13;;
18732;SDS011;9495;51.210;2.934;2023-05-07T01:46:14;50.47;;;36.65;;
18732;SDS011;9495;51.210;2.934;2023-05-07T01:48:44;56.67;;;38.85;;
18732;SDS011;9495;51.210;2.934;2023-05-07T01:51:13;55.28;;;38.80;;
18732;SDS011;9495;51.210;2.934;2023-05-07T01:53:41;54.47;;;39.15;;
18732;SDS011;9495;51.210;2.934;2023-05-07T01:56:13;54.05;;;38.15;;
18732;SDS011;9495;51.210;2.934;2023-05-07T01:58:41;58.25;;;39.28;;
18732;SDS011;9495;51.210;2.934;2023-05-07T02:01:10;51.60;;;38.37;;
18732;SDS011;9495;51.210;2.934;2023-05-07T02:03:39;55.20;;;38.70;;
18732;SDS011;9495;51.210;2.934;2023-05-07T02:06:08;58.17;;;40.00;;
18732;SDS011;9495;51.210;2.934;2023-05-07T02:08:36;54.03;;;37.90;;
18732;SDS011;9495;51.210;2.934;2023-05-07T02:11:05;56.77;;;39.00;;
18732;SDS011;9495;51.210;2.934;2023-05-07T02:13:36;62.15;;;39.38;;
18732;SDS011;9495;51.210;2.934;2023-05-07T02:16:04;57.78;;;40.20;;
18732;SDS011;9495;51.210;2.934;2023-05-07T02:18:34;52.67;;;39.08;;
18732;SDS011;9495;51.210;2.934;2023-05-07T02:21:03;54.55;;;38.75;;
18732;SDS011;9495;51.210;2.934;2023-05-07T02:23:31;59.28;;;40.00;;
18732;SDS011;9495;51.210;2.934;2023-05-07T02:26:00;58.13;;;39.10;;
18732;SDS011;9495;51.210;2.934;2023-05-07T02:28:28;62.47;;;42.50;;
18732;SDS011;9495;51.210;2.934;2023-05-07T02:30:58;60.70;;;41.30;;
18732;SDS011;9495;51.210;2.934;2023-05-07T02:33:27;52.70;;;39.47;;
18732;SDS011;9495;51.210;2.934;2023-05-07T02:35:55;59.78;;;40.90;;
18732;SDS011;9495;51.210;2.934;2023-05-07T02:38:24;57.47;;;41.00;;
18732;SDS011;9495;51.210;2.934;2023-05-07T02:40:52;62.53;;;40.63;;
18732;SDS011;9495;51.210;2.934;2023-05-07T02:43:21;57.17;;;39.60;;
18732;SDS011;9495;51.210;2.934;2023-05-07T02:45:49;56.63;;;39.83;;
18732;SDS011;9495;51.210;2.934;2023-05-07T02:48:30;61.60;;;42.60;;
18732;SDS011;9495;51.210;2.934;2023-05-07T02:50:59;62.00;;;40.40;;
18732;SDS011;9495;51.210;2.934;2023-05-07T02:53:27;59.43;;;40.10;;
18732;SDS011;9495;51.210;2.934;2023-05-07T02:55:56;63.57;;;40.60;;
18732;SDS011;9495;51.210;2.934;2023-05-07T02:58:26;55.03;;;39.63;;
18732;SDS011;9495;51.210;2.934;2023-05-07T03:00:54;57.53;;;40.22;;
18732;SDS011;9495;51.210;2.934;2023-05-07T03:03:25;55.37;;;39.40;;
18732;SDS011;9495;51.210;2.934;2023-05-07T03:05:53;55.80;;;38.75;;
18732;SDS011;9495;51.210;2.934;2023-05-07T03:08:22;57.90;;;39.03;;
18732;SDS011;9495;51.210;2.934;2023-05-07T03:10:51;51.45;;;40.03;;
18732;SDS011;9495;51.210;2.934;2023-05-07T03:13:19;61.75;;;40.92;;
18732;SDS011;9495;51.210;2.934;2023-05-07T03:15:48;59.38;;;40.05;;
18732;SDS011;9495;51.210;2.934;2023-05-07T03:18:16;60.75;;;40.75;;
18732;SDS011;9495;51.210;2.934;2023-05-07T03:20:47;58.33;;;40.25;;
18732;SDS011;9495;51.210;2.934;2023-05-07T03:23:16;61.43;;;40.10;;
18732;SDS011;9495;51.210;2.934;2023-05-07T03:25:44;55.63;;;39.42;;
18732;SDS011;9495;51.210;2.934;2023-05-07T03:28:13;52.10;;;39.13;;
18732;SDS011;9495;51.210;2.934;2023-05-07T03:30:41;60.40;;;39.78;;
18732;SDS011;9495;51.210;2.934;2023-05-07T03:33:10;53.03;;;39.23;;
18732;SDS011;9495;51.210;2.934;2023-05-07T03:35:38;54.10;;;39.30;;
18732;SDS011;9495;51.210;2.934;2023-05-07T03:38:08;57.07;;;40.33;;
18732;SDS011;9495;51.210;2.934;2023-05-07T03:40:37;55.20;;;39.13;;
18732;SDS011;9495;51.210;2.934;2023-05-07T03:43:05;57.03;;;39.17;;
18732;SDS011;9495;51.210;2.934;2023-05-07T03:45:34;56.78;;;39.28;;
18732;SDS011;9495;51.210;2.934;2023-05-07T03:48:03;57.40;;;40.67;;
18732;SDS011;9495;51.210;2.934;2023-05-07T03:50:31;57.67;;;39.93;;
18732;SDS011;9495;51.210;2.934;2023-05-07T03:53:00;57.92;;;39.00;;
18732;SDS011;9495;51.210;2.934;2023-05-07T03:55:30;57.03;;;40.63;;
18732;SDS011;9495;51.210;2.934;2023-05-07T03:57:58;59.73;;;40.43;;
18732;SDS011;9495;51.210;2.934;2023-05-07T04:00:27;63.30;;;41.00;;
18732;SDS011;9495;51.210;2.934;2023-05-07T04:02:55;60.47;;;40.90;;
18732;SDS011;9495;51.210;2.934;2023-05-07T04:05:24;62.53;;;40.73;;
18732;SDS011;9495;51.210;2.934;2023-05-07T04:07:52;64.43;;;42.53;;
18732;SDS011;9495;51.210;2.934;2023-05-07T04:10:21;62.90;;;41.47;;
18732;SDS011;9495;51.210;2.934;2023-05-07T04:12:51;64.00;;;41.33;;
18732;SDS011;9495;51.210;2.934;2023-05-07T04:15:19;56.60;;;39.13;;
18732;SDS011;9495;51.210;2.934;2023-05-07T04:17:48;60.38;;;40.90;;
18732;SDS011;9495;51.210;2.934;2023-05-07T04:20:16;59.80;;;38.73;;
18732;SDS011;9495;51.210;2.934;2023-05-07T04:22:45;59.37;;;39.90;;
18732;SDS011;9495;51.210;2.934;2023-05-07T04:25:13;58.20;;;40.27;;
18732;SDS011;9495;51.210;2.934;2023-05-07T04:27:43;64.55;;;40.42;;
18732;SDS011;9495;51.210;2.934;2023-05-07T04:30:14;61.03;;;40.20;;
18732;SDS011;9495;51.210;2.934;2023-05-07T04:32:42;51.87;;;38.80;;
18732;SDS011;9495;51.210;2.934;2023-05-07T04:35:11;60.43;;;39.70;;
18732;SDS011;9495;51.210;2.934;2023-05-07T04:37:39;54.80;;;39.27;;
18732;SDS011;9495;51.210;2.934;2023-05-07T04:40:08;60.27;;;39.63;;
18732;SDS011;9495;51.210;2.934;2023-05-07T04:42:37;57.43;;;38.73;;
18732;SDS011;9495;51.210;2.934;2023-05-07T04:45:06;54.30;;;37.60;;
18732;SDS011;9495;51.210;2.934;2023-05-07T04:47:38;54.20;;;38.60;;
18732;SDS011;9495;51.210;2.934;2023-05-07T04:50:06;52.07;;;37.13;;
18732;SDS011;9495;51.210;2.934;2023-05-07T04:52:35;53.87;;;38.07;;
18732;SDS011;9495;51.210;2.934;2023-05-07T04:55:04;53.03;;;36.55;;
18732;SDS011;9495;51.210;2.934;2023-05-07T04:57:33;54.03;;;37.33;;
18732;SDS011;9495;51.210;2.934;2023-05-07T05:00:02;50.80;;;36.95;;
18732;SDS011;9495;51.210;2.934;2023-05-07T05:02:32;53.37;;;36.63;;
18732;SDS011;9495;51.210;2.934;2023-05-07T05:05:02;54.97;;;37.47;;
18732;SDS011;9495;51.210;2.934;2023-05-07T05:07:31;50.87;;;36.03;;
18732;SDS011;9495;51.210;2.934;2023-05-07T05:09:59;56.20;;;37.47;;
18732;SDS011;9495;51.210;2.934;2023-05-07T05:12:28;53.90;;;36.83;;
18732;SDS011;9495;51.210;2.934;2023-05-07T05:14:57;56.28;;;37.72;;
18732;SDS011;9495;51.210;2.934;2023-05-07T05:17:26;52.80;;;35.77;;
18732;SDS011;9495;51.210;2.934;2023-05-07T05:19:54;50.20;;;35.43;;
18732;SDS011;9495;51.210;2.934;2023-05-07T05:22:24;46.90;;;33.77;;
18732;SDS011;9495;51.210;2.934;2023-05-07T05:24:53;48.47;;;36.23;;
18732;SDS011;9495;51.210;2.934;2023-05-07T05:27:21;56.47;;;37.63;;
18732;SDS011;9495;51.210;2.934;2023-05-07T05:29:50;52.80;;;36.23;;
18732;SDS011;9495;51.210;2.934;2023-05-07T05:32:18;53.20;;;36.00;;
18732;SDS011;9495;51.210;2.934;2023-05-07T05:34:47;50.80;;;35.97;;
18732;SDS011;9495;51.210;2.934;2023-05-07T05:37:15;52.80;;;35.85;;
18732;SDS011;9495;51.210;2.934;2023-05-07T05:39:46;48.67;;;35.08;;
18732;SDS011;9495;51.210;2.934;2023-05-07T05:42:14;49.80;;;35.47;;
18732;SDS011;9495;51.210;2.934;2023-05-07T05:44:42;49.58;;;34.95;;
18732;SDS011;9495;51.210;2.934;2023-05-07T05:47:11;50.83;;;34.95;;
18732;SDS011;9495;51.210;2.934;2023-05-07T05:49:39;52.30;;;34.95;;
18732;SDS011;9495;51.210;2.934;2023-05-07T05:52:09;51.05;;;34.17;;
18732;SDS011;9495;51.210;2.934;2023-05-07T05:54:39;45.05;;;34.65;;
18732;SDS011;9495;51.210;2.934;2023-05-07T05:57:09;50.03;;;35.72;;
18732;SDS011;9495;51.210;2.934;2023-05-07T05:59:37;52.13;;;34.93;;
18732;SDS011;9495;51.210;2.934;2023-05-07T06:02:06;49.77;;;34.17;;
18732;SDS011;9495;51.210;2.934;2023-05-07T06:04:35;47.40;;;33.10;;
18732;SDS011;9495;51.210;2.934;2023-05-07T06:07:03;49.83;;;33.47;;
18732;SDS011;9495;51.210;2.934;2023-05-07T06:09:32;45.73;;;33.13;;
18732;SDS011;9495;51.210;2.934;2023-05-07T06:12:00;46.70;;;33.05;;
18732;SDS011;9495;51.210;2.934;2023-05-07T06:14:30;50.15;;;34.13;;
18732;SDS011;9495;51.210;2.934;2023-05-07T06:16:58;43.83;;;31.88;;
18732;SDS011;9495;51.210;2.934;2023-05-07T06:19:27;41.67;;;29.38;;
18732;SDS011;9495;51.210;2.934;2023-05-07T06:21:55;40.63;;;28.42;;
18732;SDS011;9495;51.210;2.934;2023-05-07T06:24:24;36.85;;;27.88;;
18732;SDS011;9495;51.210;2.934;2023-05-07T06:26:52;40.40;;;28.45;;
18732;SDS011;9495;51.210;2.934;2023-05-07T06:29:21;39.88;;;28.17;;
18732;SDS011;9495;51.210;2.934;2023-05-07T06:31:53;43.13;;;28.60;;
18732;SDS011;9495;51.210;2.934;2023-05-07T06:34:22;36.70;;;26.17;;
18732;SDS011;9495;51.210;2.934;2023-05-07T06:36:50;42.13;;;26.60;;
18732;SDS011;9495;51.210;2.934;2023-05-07T06:39:19;40.08;;;26.55;;
18732;SDS011;9495;51.210;2.934;2023-05-07T06:41:48;35.80;;;25.63;;
18732;SDS011;9495;51.210;2.934;2023-05-07T06:44:16;41.28;;;25.55;;
18732;SDS011;9495;51.210;2.934;2023-05-07T06:46:45;32.27;;;22.23;;
18732;SDS011;9495;51.210;2.934;2023-05-07T06:49:15;32.92;;;22.00;;
18732;SDS011;9495;51.210;2.934;2023-05-07T06:51:43;35.50;;;22.85;;
18732;SDS011;9495;51.210;2.934;2023-05-07T06:54:11;34.28;;;21.30;;
18732;SDS011;9495;51.210;2.934;2023-05-07T06:56:40;35.85;;;20.75;;
18732;SDS011;9495;51.210;2.934;2023-05-07T06:59:09;38.08;;;20.15;;
18732;SDS011;9495;51.210;2.934;2023-05-07T07:01:37;34.72;;;18.85;;
18732;SDS011;9495;51.210;2.934;2023-05-07T07:04:06;33.10;;;19.08;;
18732;SDS011;9495;51.210;2.934;2023-05-07T07:06:36;33.13;;;18.77;;
18732;SDS011;9495;51.210;2.934;2023-05-07T07:09:04;36.97;;;19.75;;
18732;SDS011;9495;51.210;2.934;2023-05-07T07:11:32;36.65;;;21.50;;
18732;SDS011;9495;51.210;2.934;2023-05-07T07:14:01;33.20;;;20.15;;
18732;SDS011;9495;51.210;2.934;2023-05-07T07:16:31;33.30;;;18.58;;
18732;SDS011;9495;51.210;2.934;2023-05-07T07:19:00;29.75;;;19.10;;
18732;SDS011;9495;51.210;2.934;2023-05-07T07:21:28;34.72;;;20.25;;
18732;SDS011;9495;51.210;2.934;2023-05-07T07:23:59;31.42;;;19.00;;
18732;SDS011;9495;51.210;2.934;2023-05-07T07:26:28;32.13;;;19.55;;
18732;SDS011;9495;51.210;2.934;2023-05-07T07:28:57;38.70;;;20.92;;
18732;SDS011;9495;51.210;2.934;2023-05-07T07:31:26;36.83;;;21.73;;
18732;SDS011;9495;51.210;2.934;2023-05-07T07:33:54;36.95;;;21.25;;
18732;SDS011;9495;51.210;2.934;2023-05-07T07:36:23;38.00;;;21.92;;
18732;SDS011;9495;51.210;2.934;2023-05-07T07:39:12;37.60;;;20.92;;
18732;SDS011;9495;51.210;2.934;2023-05-07T07:41:41;38.50;;;21.85;;
18732;SDS011;9495;51.210;2.934;2023-05-07T07:44:09;38.90;;;21.77;;
18732;SDS011;9495;51.210;2.934;2023-05-07T07:46:41;37.08;;;20.38;;
18732;SDS011;9495;51.210;2.934;2023-05-07T07:49:10;30.67;;;21.02;;
18732;SDS011;9495;51.210;2.934;2023-05-07T07:51:38;30.27;;;20.85;;
18732;SDS011;9495;51.210;2.934;2023-05-07T07:54:07;30.15;;;20.25;;
18732;SDS011;9495;51.210;2.934;2023-05-07T07:56:36;29.55;;;18.90;;
18732;SDS011;9495;51.210;2.934;2023-05-07T07:59:05;29.98;;;20.02;;
18732;SDS011;9495;51.210;2.934;2023-05-07T08:01:33;31.92;;;21.77;;
18732;SDS011;9495;51.210;2.934;2023-05-07T08:04:02;31.50;;;22.88;;
18732;SDS011;9495;51.210;2.934;2023-05-07T08:06:32;28.98;;;23.23;;
18732;SDS011;9495;51.210;2.934;2023-05-07T08:09:00;32.10;;;22.85;;
18732;SDS011;9495;51.210;2.934;2023-05-07T08:11:29;34.47;;;22.30;;
18732;SDS011;9495;51.210;2.934;2023-05-07T08:13:59;34.40;;;22.73;;
18732;SDS011;9495;51.210;2.934;2023-05-07T08:16:28;34.15;;;21.38;;
18732;SDS011;9495;51.210;2.934;2023-05-07T08:18:57;31.83;;;21.80;;
18732;SDS011;9495;51.210;2.934;2023-05-07T08:21:26;35.30;;;21.80;;
18732;SDS011;9495;51.210;2.934;2023-05-07T08:23:54;30.67;;;21.65;;
18732;SDS011;9495;51.210;2.934;2023-05-07T08:26:22;32.83;;;23.83;;
18732;SDS011;9495;51.210;2.934;2023-05-07T08:28:51;32.22;;;20.83;;
18732;SDS011;9495;51.210;2.934;2023-05-07T08:31:21;29.52;;;19.48;;
18732;SDS011;9495;51.210;2.934;2023-05-07T08:33:49;27.67;;;19.92;;
18732;SDS011;9495;51.210;2.934;2023-05-07T08:36:18;29.33;;;19.25;;
18732;SDS011;9495;51.210;2.934;2023-05-07T08:38:46;32.72;;;19.95;;
18732;SDS011;9495;51.210;2.934;2023-05-07T08:41:15;30.38;;;20.08;;
18732;SDS011;9495;51.210;2.934;2023-05-07T08:43:45;27.63;;;18.90;;
18732;SDS011;9495;51.210;2.934;2023-05-07T08:46:16;31.23;;;18.63;;
18732;SDS011;9495;51.210;2.934;2023-05-07T08:48:49;22.90;;;16.90;;
18732;SDS011;9495;51.210;2.934;2023-05-07T08:51:18;27.80;;;17.92;;
18732;SDS011;9495;51.210;2.934;2023-05-07T08:53:48;28.85;;;17.75;;
18732;SDS011;9495;51.210;2.934;2023-05-07T08:56:17;26.45;;;18.02;;
18732;SDS011;9495;51.210;2.934;2023-05-07T08:58:48;31.40;;;18.67;;
18732;SDS011;9495;51.210;2.934;2023-05-07T09:01:16;26.10;;;18.05;;
18732;SDS011;9495;51.210;2.934;2023-05-07T09:03:45;26.95;;;18.45;;
18732;SDS011;9495;51.210;2.934;2023-05-07T09:06:16;26.48;;;18.52;;
18732;SDS011;9495;51.210;2.934;2023-05-07T09:08:48;28.45;;;18.45;;
18732;SDS011;9495;51.210;2.934;2023-05-07T09:11:19;28.10;;;18.42;;
18732;SDS011;9495;51.210;2.934;2023-05-07T09:13:49;26.85;;;18.40;;
18732;SDS011;9495;51.210;2.934;2023-05-07T09:16:22;28.55;;;20.30;;
18732;SDS011;9495;51.210;2.934;2023-05-07T09:18:51;27.55;;;18.67;;
18732;SDS011;9495;51.210;2.934;2023-05-07T09:21:22;25.73;;;19.20;;
18732;SDS011;9495;51.210;2.934;2023-05-07T09:23:51;28.85;;;20.88;;
18732;SDS011;9495;51.210;2.934;2023-05-07T09:26:20;32.40;;;19.25;;
18732;SDS011;9495;51.210;2.934;2023-05-07T09:28:49;26.38;;;17.60;;
18732;SDS011;9495;51.210;2.934;2023-05-07T09:31:17;25.55;;;16.70;;
18732;SDS011;9495;51.210;2.934;2023-05-07T09:33:47;24.95;;;16.67;;
18732;SDS011;9495;51.210;2.934;2023-05-07T09:36:15;24.52;;;16.75;;
18732;SDS011;9495;51.210;2.934;2023-05-07T09:38:45;23.13;;;18.20;;
18732;SDS011;9495;51.210;2.934;2023-05-07T09:41:14;25.92;;;17.65;;
18732;SDS011;9495;51.210;2.934;2023-05-07T09:43:42;29.50;;;17.85;;
18732;SDS011;9495;51.210;2.934;2023-05-07T09:46:11;26.88;;;18.85;;
18732;SDS011;9495;51.210;2.934;2023-05-07T09:48:41;28.60;;;19.08;;
18732;SDS011;9495;51.210;2.934;2023-05-07T09:51:15;31.90;;;20.17;;
18732;SDS011;9495;51.210;2.934;2023-05-07T09:53:50;26.45;;;17.55;;
18732;SDS011;9495;51.210;2.934;2023-05-07T09:56:20;24.65;;;18.45;;
18732;SDS011;9495;51.210;2.934;2023-05-07T09:58:50;28.60;;;19.17;;
18732;SDS011;9495;51.210;2.934;2023-05-07T10:01:21;27.33;;;19.77;;
18732;SDS011;9495;51.210;2.934;2023-05-07T10:03:51;31.20;;;21.15;;
18732;SDS011;9495;51.210;2.934;2023-05-07T10:06:21;28.80;;;20.90;;
18732;SDS011;9495;51.210;2.934;2023-05-07T10:08:53;28.10;;;20.48;;
18732;SDS011;9495;51.210;2.934;2023-05-07T10:11:23;32.67;;;20.05;;
18732;SDS011;9495;51.210;2.934;2023-05-07T10:13:51;28.40;;;18.38;;
18732;SDS011;9495;51.210;2.934;2023-05-07T10:16:20;32.15;;;18.10;;
18732;SDS011;9495;51.210;2.934;2023-05-07T10:18:49;27.23;;;18.60;;
18732;SDS011;9495;51.210;2.934;2023-05-07T10:21:19;23.20;;;16.52;;
18732;SDS011;9495;51.210;2.934;2023-05-07T10:23:50;21.15;;;15.25;;
18732;SDS011;9495;51.210;2.934;2023-05-07T10:26:23;23.88;;;14.50;;
18732;SDS011;9495;51.210;2.934;2023-05-07T10:28:56;26.25;;;16.42;;
18732;SDS011;9495;51.210;2.934;2023-05-07T10:31:35;19.75;;;14.93;;
18732;SDS011;9495;51.210;2.934;2023-05-07T10:34:16;21.60;;;13.98;;
18732;SDS011;9495;51.210;2.934;2023-05-07T10:36:48;24.17;;;14.75;;
18732;SDS011;9495;51.210;2.934;2023-05-07T10:39:20;18.65;;;11.98;;
18732;SDS011;9495;51.210;2.934;2023-05-07T10:41:49;16.25;;;10.15;;
18732;SDS011;9495;51.210;2.934;2023-05-07T10:44:25;14.52;;;9.48;;
18732;SDS011;9495;51.210;2.934;2023-05-07T10:47:06;13.25;;;8.98;;
18732;SDS011;9495;51.210;2.934;2023-05-07T10:49:36;25.17;;;14.57;;
18732;SDS011;9495;51.210;2.934;2023-05-07T10:52:25;24.63;;;17.55;;
18732;SDS011;9495;51.210;2.934;2023-05-07T10:57:52;25.25;;;16.67;;
18732;SDS011;9495;51.210;2.934;2023-05-07T11:03:14;29.98;;;15.80;;
18732;SDS011;9495;51.210;2.934;2023-05-07T11:05:42;27.15;;;16.17;;
18732;SDS011;9495;51.210;2.934;2023-05-07T11:08:11;21.48;;;15.15;;
18732;SDS011;9495;51.210;2.934;2023-05-07T11:10:54;22.30;;;15.00;;
18732;SDS011;9495;51.210;2.934;2023-05-07T11:16:17;20.55;;;14.30;;
18732;SDS011;9495;51.210;2.934;2023-05-07T11:18:47;20.40;;;13.90;;
18732;SDS011;9495;51.210;2.934;2023-05-07T11:21:31;23.13;;;13.90;;
18732;SDS011;9495;51.210;2.934;2023-05-07T11:24:01;20.52;;;13.10;;
18732;SDS011;9495;51.210;2.934;2023-05-07T11:26:32;17.55;;;12.60;;
18732;SDS011;9495;51.210;2.934;2023-05-07T11:29:11;13.38;;;10.23;;
18732;SDS011;9495;51.210;2.934;2023-05-07T11:31:40;16.45;;;9.60;;
18732;SDS011;9495;51.210;2.934;2023-05-07T11:34:09;10.10;;;6.50;;
18732;SDS011;9495;51.210;2.934;2023-05-07T11:36:41;12.07;;;6.28;;
18732;SDS011;9495;51.210;2.934;2023-05-07T11:39:23;8.70;;;5.07;;
18732;SDS011;9495;51.210;2.934;2023-05-07T11:41:53;12.23;;;4.93;;
18732;SDS011;9495;51.210;2.934;2023-05-07T11:44:22;14.52;;;6.25;;
18732;SDS011;9495;51.210;2.934;2023-05-07T11:46:50;10.93;;;5.88;;
18732;SDS011;9495;51.210;2.934;2023-05-07T11:49:19;15.00;;;6.43;;
18732;SDS011;9495;51.210;2.934;2023-05-07T11:51:48;14.40;;;5.72;;
18732;SDS011;9495;51.210;2.934;2023-05-07T11:54:16;10.40;;;6.15;;
18732;SDS011;9495;51.210;2.934;2023-05-07T11:56:44;17.35;;;9.05;;
18732;SDS011;9495;51.210;2.934;2023-05-07T11:59:18;13.27;;;9.10;;
18732;SDS011;9495;51.210;2.934;2023-05-07T12:01:46;14.32;;;10.35;;
18732;SDS011;9495;51.210;2.934;2023-05-07T12:04:19;15.45;;;10.95;;
18732;SDS011;9495;51.210;2.934;2023-05-07T12:06:48;13.00;;;9.93;;
18732;SDS011;9495;51.210;2.934;2023-05-07T12:09:22;21.92;;;11.55;;
18732;SDS011;9495;51.210;2.934;2023-05-07T12:11:51;16.77;;;11.25;;
18732;SDS011;9495;51.210;2.934;2023-05-07T12:14:26;14.10;;;10.50;;
18732;SDS011;9495;51.210;2.934;2023-05-07T12:16:55;14.65;;;10.38;;
18732;SDS011;9495;51.210;2.934;2023-05-07T12:19:24;11.85;;;9.68;;
18732;SDS011;9495;51.210;2.934;2023-05-07T12:21:53;14.50;;;9.57;;
18732;SDS011;9495;51.210;2.934;2023-05-07T12:24:22;16.88;;;9.82;;
18732;SDS011;9495;51.210;2.934;2023-05-07T12:26:51;13.57;;;8.40;;
18732;SDS011;9495;51.210;2.934;2023-05-07T12:29:21;14.05;;;8.27;;
18732;SDS011;9495;51.210;2.934;2023-05-07T12:31:51;12.45;;;8.18;;
18732;SDS011;9495;51.210;2.934;2023-05-07T12:34:20;13.43;;;8.15;;
18732;SDS011;9495;51.210;2.934;2023-05-07T12:36:49;12.95;;;8.38;;
18732;SDS011;9495;51.210;2.934;2023-05-07T12:39:18;11.50;;;8.23;;
18732;SDS011;9495;51.210;2.934;2023-05-07T12:41:53;19.02;;;12.60;;
18732;SDS011;9495;51.210;2.934;2023-05-07T12:44:22;20.80;;;14.75;;
18732;SDS011;9495;51.210;2.934;2023-05-07T12:46:52;21.88;;;15.20;;
18732;SDS011;9495;51.210;2.934;2023-05-07T12:49:21;23.10;;;15.13;;
18732;SDS011;9495;51.210;2.934;2023-05-07T12:51:51;20.92;;;14.80;;
18732;SDS011;9495;51.210;2.934;2023-05-07T12:54:29;23.58;;;15.27;;
18732;SDS011;9495;51.210;2.934;2023-05-07T12:57:02;23.85;;;15.27;;
18732;SDS011;9495;51.210;2.934;2023-05-07T12:59:31;22.98;;;15.27;;
18732;SDS011;9495;51.210;2.934;2023-05-07T13:02:02;21.90;;;15.68;;
18732;SDS011;9495;51.210;2.934;2023-05-07T13:04:30;25.67;;;16.65;;
18732;SDS011;9495;51.210;2.934;2023-05-07T13:06:59;24.25;;;16.98;;
18732;SDS011;9495;51.210;2.934;2023-05-07T13:09:28;23.45;;;15.90;;
18732;SDS011;9495;51.210;2.934;2023-05-07T13:11:56;22.95;;;17.88;;
18732;SDS011;9495;51.210;2.934;2023-05-07T13:14:27;20.90;;;15.50;;
18732;SDS011;9495;51.210;2.934;2023-05-07T13:16:56;27.05;;;16.58;;
18732;SDS011;9495;51.210;2.934;2023-05-07T13:19:26;23.10;;;16.73;;
18732;SDS011;9495;51.210;2.934;2023-05-07T13:21:57;19.23;;;15.52;;
18732;SDS011;9495;51.210;2.934;2023-05-07T13:24:25;23.58;;;15.57;;
18732;SDS011;9495;51.210;2.934;2023-05-07T13:26:54;26.23;;;17.17;;
18732;SDS011;9495;51.210;2.934;2023-05-07T13:29:22;23.05;;;16.52;;
18732;SDS011;9495;51.210;2.934;2023-05-07T13:31:55;20.55;;;13.48;;
18732;SDS011;9495;51.210;2.934;2023-05-07T13:34:24;22.08;;;13.65;;
18732;SDS011;9495;51.210;2.934;2023-05-07T13:36:53;21.65;;;15.50;;
18732;SDS011;9495;51.210;2.934;2023-05-07T13:39:22;23.08;;;16.77;;
18732;SDS011;9495;51.210;2.934;2023-05-07T13:41:51;31.27;;;20.65;;
18732;SDS011;9495;51.210;2.934;2023-05-07T13:44:19;29.38;;;20.23;;
18732;SDS011;9495;51.210;2.934;2023-05-07T13:46:48;28.27;;;20.77;;
18732;SDS011;9495;51.210;2.934;2023-05-07T13:49:16;29.05;;;21.35;;
18732;SDS011;9495;51.210;2.934;2023-05-07T13:51:46;28.33;;;21.30;;
18732;SDS011;9495;51.210;2.934;2023-05-07T13:54:14;29.73;;;21.35;;
18732;SDS011;9495;51.210;2.934;2023-05-07T13:56:43;26.85;;;19.20;;
18732;SDS011;9495;51.210;2.934;2023-05-07T13:59:12;28.67;;;21.25;;
18732;SDS011;9495;51.210;2.934;2023-05-07T14:01:41;27.55;;;19.42;;
18732;SDS011;9495;51.210;2.934;2023-05-07T14:04:10;24.70;;;18.33;;
18732;SDS011;9495;51.210;2.934;2023-05-07T14:06:38;26.85;;;17.67;;
18732;SDS011;9495;51.210;2.934;2023-05-07T14:09:08;28.67;;;17.27;;
18732;SDS011;9495;51.210;2.934;2023-05-07T14:11:39;26.27;;;18.25;;
18732;SDS011;9495;51.210;2.934;2023-05-07T14:14:08;27.05;;;18.58;;
18732;SDS011;9495;51.210;2.934;2023-05-07T14:16:37;23.80;;;17.55;;
18732;SDS011;9495;51.210;2.934;2023-05-07T14:19:06;22.13;;;16.92;;
18732;SDS011;9495;51.210;2.934;2023-05-07T14:21:34;19.17;;;16.23;;
18732;SDS011;9495;51.210;2.934;2023-05-07T14:24:03;19.15;;;15.57;;
18732;SDS011;9495;51.210;2.934;2023-05-07T14:26:34;21.10;;;17.60;;
18732;SDS011;9495;51.210;2.934;2023-05-07T14:29:03;23.77;;;15.60;;
18732;SDS011;9495;51.210;2.934;2023-05-07T14:31:31;21.08;;;14.45;;
18732;SDS011;9495;51.210;2.934;2023-05-07T14:34:00;20.33;;;13.98;;
18732;SDS011;9495;51.210;2.934;2023-05-07T14:36:29;22.63;;;15.38;;
18732;SDS011;9495;51.210;2.934;2023-05-07T14:38:58;23.80;;;17.05;;
18732;SDS011;9495;51.210;2.934;2023-05-07T14:41:26;25.40;;;18.42;;
18732;SDS011;9495;51.210;2.934;2023-05-07T14:43:56;21.40;;;14.65;;
18732;SDS011;9495;51.210;2.934;2023-05-07T14:46:25;25.75;;;16.25;;
18732;SDS011;9495;51.210;2.934;2023-05-07T14:48:53;24.23;;;16.20;;
18732;SDS011;9495;51.210;2.934;2023-05-07T14:51:22;29.42;;;18.58;;
18732;SDS011;9495;51.210;2.934;2023-05-07T14:53:52;23.63;;;17.60;;
18732;SDS011;9495;51.210;2.934;2023-05-07T14:56:21;24.23;;;15.32;;
18732;SDS011;9495;51.210;2.934;2023-05-07T14:58:49;28.40;;;19.75;;